Time;durP1;ratioP1;P1;durP2;ratioP2;P2;SDS_P1;SDS_P2;PMS_P1;PMS_P2;Temp;Humidity;BMP_temperature;BMP_pressure;BME280_temperature;BME280_humidity;BME280_pressure;Samples;Min_cycle;Max_cycle;Signal;HPM_P1;HPM_P2
2019/12/28 00:00:23;;;;;;;22.2;19.9;;;;;;;2.63;96.75488;977.28;;;;
2019/12/28 00:02:48;;;;;;;22.6;20.4;;;;;;;2.73;97.8623;977.3174;;;;
2019/12/28 00:05:13;;;;;;;22.7;20.5;;;;;;;2.59;96.37402;977.5254;;;;
2019/12/28 00:07:38;;;;;;;23.1;20.9;;;;;;;2.45;98.06934;977.5414;;;;
2019/12/28 00:10:04;;;;;;;23.1;20.8;;;;;;;2.44;97.41211;977.4683;;;;
2019/12/28 00:12:29;;;;;;;22.9;20.6;;;;;;;2.56;99.92383;977.4294;;;;
2019/12/28 00:14:55;;;;;;;24.1;21.6;;;;;;;2.59;97.66016;977.378;;;;
2019/12/28 00:17:20;;;;;;;21.6;19.4;;;;;;;2.58;96.55078;977.378;;;;
2019/12/28 00:19:45;;;;;;;21.2;19.1;;;;;;;2.73;96.75488;977.4137;;;;
2019/12/28 00:22:10;;;;;;;22.7;20.3;;;;;;;2.63;97.04883;977.3298;;;;
2019/12/28 00:24:35;;;;;;;24.2;21.8;;;;;;;2.6;98.61328;977.3287;;;;
2019/12/28 00:27:00;;;;;;;23.7;21.3;;;;;;;2.71;97.07617;977.3895;;;;
2019/12/28 00:29:26;;;;;;;23.6;21.2;;;;;;;2.6;99.22559;977.4785;;;;
2019/12/28 00:31:51;;;;;;;23.5;21.1;;;;;;;2.65;98.03613;977.3184;;;;
2019/12/28 00:34:16;;;;;;;22.8;20.5;;;;;;;2.74;97.36719;977.3348;;;;
2019/12/28 00:36:41;;;;;;;23.3;21;;;;;;;2.7;97.48145;977.3308;;;;
2019/12/28 00:39:06;;;;;;;22.8;20.5;;;;;;;2.82;97.43066;977.3667;;;;
2019/12/28 00:41:32;;;;;;;23.9;21.5;;;;;;;2.78;99.06152;977.3427;;;;
2019/12/28 00:43:57;;;;;;;23.1;20.8;;;;;;;2.71;98.70605;977.3045;;;;
2019/12/28 00:46:22;;;;;;;23.4;20.9;;;;;;;2.79;99.7959;977.2709;;;;
2019/12/28 00:48:47;;;;;;;22.4;20.1;;;;;;;3.04;96.76758;977.3345;;;;
2019/12/28 00:51:13;;;;;;;21.4;19.3;;;;;;;2.86;95.25781;977.2403;;;;
2019/12/28 00:53:38;;;;;;;22;19.8;;;;;;;2.78;96.91406;977.2684;;;;
2019/12/28 00:56:03;;;;;;;21.1;19;;;;;;;2.71;94.74121;977.373;;;;
2019/12/28 01:01:06;;;;;;;21.1;19.1;;;;;;;2.59;94.32715;977.377;;;;
2019/12/28 01:03:18;;;;;;;21.2;19.1;;;;;;;2.68;94.65234;977.4128;;;;
2019/12/28 01:05:43;;;;;;;20.5;18.4;;;;;;;2.7;94.82813;977.3756;;;;
2019/12/28 01:08:08;;;;;;;21.7;19.6;;;;;;;2.7;96.625;977.3633;;;;
2019/12/28 01:10:34;;;;;;;15.3;13.8;;;;;;;2.72;93.13672;977.3106;;;;
2019/12/28 01:12:59;;;;;;;15.5;14;;;;;;;2.82;88.18555;977.4568;;;;
2019/12/28 01:15:24;;;;;;;16.7;15.1;;;;;;;2.74;88.9707;977.528;;;;
2019/12/28 01:17:49;;;;;;;17.5;15.7;;;;;;;2.7;92.70313;977.5952;;;;
2019/12/28 01:20:14;;;;;;;18.5;16.7;;;;;;;2.68;93.30957;977.6089;;;;
2019/12/28 01:22:39;;;;;;;18;16.1;;;;;;;2.69;91.40234;977.5876;;;;
2019/12/28 01:25:04;;;;;;;19;17.1;;;;;;;2.85;93.90137;977.5974;;;;
2019/12/28 01:27:30;;;;;;;18.3;16.6;;;;;;;2.93;92.52832;977.6464;;;;
2019/12/28 01:29:55;;;;;;;18.8;16.9;;;;;;;2.92;94.63867;977.6456;;;;
2019/12/28 01:32:20;;;;;;;18.5;16.7;;;;;;;2.82;93.48633;977.6469;;;;
2019/12/28 01:34:46;;;;;;;16.2;14.6;;;;;;;2.86;88.54492;977.6116;;;;
2019/12/28 01:37:11;;;;;;;15.8;14.3;;;;;;;2.76;91.09961;977.5327;;;;
2019/12/28 01:39:36;;;;;;;10.6;9.6;;;;;;;2.8;84.98145;977.4512;;;;
2019/12/28 01:42:01;;;;;;;11.9;10.8;;;;;;;2.84;86.3252;977.4437;;;;
2019/12/28 01:44:27;;;;;;;13.9;12.6;;;;;;;2.79;86.24707;977.4081;;;;
2019/12/28 01:46:52;;;;;;;15.1;13.6;;;;;;;2.83;87.54297;977.4128;;;;
2019/12/28 01:49:17;;;;;;;15.3;13.8;;;;;;;2.79;89.68262;977.412;;;;
2019/12/28 01:51:42;;;;;;;16.3;14.7;;;;;;;2.83;88.52637;977.511;;;;
2019/12/28 01:54:07;;;;;;;17.2;15.4;;;;;;;2.78;90.28906;977.5108;;;;
2019/12/28 01:56:33;;;;;;;17.1;15.5;;;;;;;2.71;91.91406;977.6029;;;;
2019/12/28 01:59:24;;;;;;;19.5;17.4;;;;;;;2.59;91.95508;977.6516;;;;
2019/12/28 02:01:30;;;;;;;19.7;17.7;;;;;;;2.59;92.74609;977.6774;;;;
2019/12/28 02:03:48;;;;;;;19.5;17.5;;;;;;;2.64;93.11914;977.6091;;;;
2019/12/28 02:06:14;;;;;;;20.1;18.1;;;;;;;2.6;93.22266;977.594;;;;
2019/12/28 02:08:39;;;;;;;20.9;18.8;;;;;;;2.52;94.50391;977.6476;;;;
2019/12/28 02:11:04;;;;;;;20.6;18.6;;;;;;;2.6;94.57813;977.6046;;;;
2019/12/28 02:13:29;;;;;;;20.5;18.5;;;;;;;2.75;93.91113;977.605;;;;
2019/12/28 02:15:54;;;;;;;21.4;19.3;;;;;;;2.72;94.79785;977.6001;;;;
2019/12/28 02:18:19;;;;;;;21.5;19.3;;;;;;;2.62;94.1543;977.5735;;;;
2019/12/28 02:20:44;;;;;;;20.1;18.1;;;;;;;2.56;96.09473;977.601;;;;
2019/12/28 02:23:10;;;;;;;21.4;19.2;;;;;;;2.51;96.36523;977.608;;;;
2019/12/28 02:25:35;;;;;;;20.4;18.4;;;;;;;2.48;94.74609;977.6646;;;;
2019/12/28 02:28:00;;;;;;;19.9;18;;;;;;;2.44;93.64063;977.5916;;;;
2019/12/28 02:30:26;;;;;;;21.5;19.4;;;;;;;2.41;94.99902;977.6042;;;;
2019/12/28 02:32:51;;;;;;;22.7;20.4;;;;;;;2.17;96.35742;977.6568;;;;
2019/12/28 02:35:16;;;;;;;22.5;20.3;;;;;;;2.25;97.32227;977.6653;;;;
2019/12/28 02:37:41;;;;;;;21.8;19.6;;;;;;;2.35;95.17871;977.6735;;;;
2019/12/28 02:40:06;;;;;;;20.3;18.2;;;;;;;2.26;94.68457;977.6728;;;;
2019/12/28 02:42:31;;;;;;;21.5;19.4;;;;;;;2.29;94.91602;977.7107;;;;
2019/12/28 02:44:57;;;;;;;21.1;19;;;;;;;2.23;95.94043;977.7145;;;;
2019/12/28 02:47:22;;;;;;;21.9;19.8;;;;;;;2.15;97.90918;977.7216;;;;
2019/12/28 02:49:47;;;;;;;20.5;18.5;;;;;;;2.2;97.01855;977.6418;;;;
2019/12/28 02:52:12;;;;;;;20.9;18.8;;;;;;;2.14;95.1875;977.634;;;;
2019/12/28 02:54:37;;;;;;;20.5;18.5;;;;;;;2.05;96.1377;977.6431;;;;
2019/12/28 02:57:03;;;;;;;20.7;18.6;;;;;;;2.11;96.11719;977.6422;;;;
2019/12/28 02:59:28;;;;;;;21.6;19.5;;;;;;;2.1;95.76367;977.6331;;;;
2019/12/28 03:01:53;;;;;;;21.1;19;;;;;;;2.05;98.08887;977.6544;;;;
2019/12/28 03:04:18;;;;;;;21.7;19.5;;;;;;;2.08;97.48633;977.641;;;;
2019/12/28 03:06:44;;;;;;;22.5;20.2;;;;;;;2.03;98.26563;977.7314;;;;
2019/12/28 03:09:09;;;;;;;22.2;20;;;;;;;2;97.75195;977.7363;;;;
2019/12/28 03:11:34;;;;;;;22.6;20.3;;;;;;;2.02;98.94043;977.7269;;;;
2019/12/28 03:13:59;;;;;;;21.5;19.3;;;;;;;1.97;96.97656;977.7802;;;;
2019/12/28 03:16:24;;;;;;;22;19.8;;;;;;;1.93;98.10742;977.7686;;;;
2019/12/28 03:18:50;;;;;;;21.5;19.4;;;;;;;1.92;97.50781;977.7958;;;;
2019/12/28 03:21:15;;;;;;;21.8;19.6;;;;;;;1.9;97.96387;977.8017;;;;
2019/12/28 03:23:40;;;;;;;23.4;21;;;;;;;1.81;99.03906;977.84;;;;
2019/12/28 03:26:05;;;;;;;22.2;20;;;;;;;1.87;97.94434;977.8876;;;;
2019/12/28 03:28:31;;;;;;;22.7;20.4;;;;;;;1.81;98.42773;977.8917;;;;
2019/12/28 03:30:56;;;;;;;22.8;20.4;;;;;;;1.83;98.70508;977.8578;;;;
2019/12/28 03:33:21;;;;;;;22.4;20.2;;;;;;;1.87;97.03223;977.8141;;;;
2019/12/28 03:35:47;;;;;;;22.7;20.4;;;;;;;1.86;98.06836;977.7693;;;;
2019/12/28 03:38:12;;;;;;;22.7;20.4;;;;;;;1.7;98.10938;977.7464;;;;
2019/12/28 03:40:37;;;;;;;22.6;20.3;;;;;;;1.66;98.26855;977.7188;;;;
2019/12/28 03:43:02;;;;;;;22;19.9;;;;;;;1.47;98.77637;977.6864;;;;
2019/12/28 03:45:28;;;;;;;25;22.5;;;;;;;1.39;100;977.7592;;;;
2019/12/28 03:47:53;;;;;;;27.6;24.8;;;;;;;1.22;100;977.7787;;;;
2019/12/28 03:50:18;;;;;;;30.5;27.4;;;;;;;1.14;100;977.7775;;;;
2019/12/28 03:52:44;;;;;;;29.3;26.2;;;;;;;1.16;100;977.8236;;;;
2019/12/28 03:55:09;;;;;;;31;27.8;;;;;;;1.1;100;977.8708;;;;
2019/12/28 03:57:34;;;;;;;31.3;28.1;;;;;;;1.11;100;977.8409;;;;
2019/12/28 03:59:59;;;;;;;31;27.7;;;;;;;1.12;100;977.866;;;;
2019/12/28 04:02:28;;;;;;;31.2;28;;;;;;;1.1;100;977.8772;;;;
2019/12/28 04:04:53;;;;;;;31.6;28.3;;;;;;;1.02;100;977.9033;;;;
2019/12/28 04:07:18;;;;;;;32.4;28.9;;;;;;;1.05;100;977.9386;;;;
2019/12/28 04:09:43;;;;;;;33.5;30;;;;;;;1;100;977.9091;;;;
2019/12/28 04:12:08;;;;;;;31.7;28.4;;;;;;;1.18;100;977.9713;;;;
2019/12/28 04:14:34;;;;;;;30.7;27.5;;;;;;;1.06;100;977.9827;;;;
2019/12/28 04:16:59;;;;;;;30.3;27.2;;;;;;;1.2;100;978.0289;;;;
2019/12/28 04:19:24;;;;;;;28.7;25.7;;;;;;;1.23;100;978.0577;;;;
2019/12/28 04:21:49;;;;;;;29.6;26.5;;;;;;;1.29;100;978.0472;;;;
2019/12/28 04:24:14;;;;;;;29;26.1;;;;;;;1.24;100;978.0724;;;;
2019/12/28 04:26:39;;;;;;;31.2;28;;;;;;;1.15;100;978.1224;;;;
2019/12/28 04:29:09;;;;;;;28.6;25.6;;;;;;;1.17;100;978.1986;;;;
2019/12/28 04:31:29;;;;;;;29.4;26.4;;;;;;;1.15;100;978.1962;;;;
2019/12/28 04:33:54;;;;;;;29.1;26;;;;;;;1.16;100;978.1923;;;;
2019/12/28 04:36:20;;;;;;;27.3;24.5;;;;;;;1.17;100;978.2338;;;;
2019/12/28 04:38:45;;;;;;;26.5;23.8;;;;;;;1.13;100;978.2394;;;;
2019/12/28 04:41:10;;;;;;;28.2;25.2;;;;;;;1.01;100;978.248;;;;
2019/12/28 04:43:35;;;;;;;30.1;26.9;;;;;;;0.88;100;978.2457;;;;
2019/12/28 04:46:00;;;;;;;30.1;27;;;;;;;0.69;100;978.2701;;;;
2019/12/28 04:48:25;;;;;;;30.2;27.1;;;;;;;0.75;100;978.3044;;;;
2019/12/28 04:50:50;;;;;;;27.4;24.7;;;;;;;0.97;100;978.2799;;;;
2019/12/28 04:53:15;;;;;;;28.5;25.6;;;;;;;0.85;100;978.2569;;;;
2019/12/28 04:55:40;;;;;;;28.3;25.4;;;;;;;0.88;100;978.2534;;;;
2019/12/28 04:58:05;;;;;;;29.4;26.4;;;;;;;0.65;100;978.2606;;;;
2019/12/28 05:00:30;;;;;;;31.2;27.9;;;;;;;0.49;100;978.3014;;;;
2019/12/28 05:02:55;;;;;;;31.4;28;;;;;;;0.5;100;978.3181;;;;
2019/12/28 05:05:20;;;;;;;29.1;26.1;;;;;;;0.74;100;978.3113;;;;
2019/12/28 05:07:46;;;;;;;28.8;25.8;;;;;;;0.56;100;978.3161;;;;
2019/12/28 05:10:11;;;;;;;28;25.2;;;;;;;0.58;100;978.3469;;;;
2019/12/28 05:12:36;;;;;;;27.3;24.5;;;;;;;0.79;100;978.3806;;;;
2019/12/28 05:15:01;;;;;;;27.1;24.3;;;;;;;0.8;100;978.4395;;;;
2019/12/28 05:17:26;;;;;;;26.3;23.6;;;;;;;0.78;100;978.4459;;;;
2019/12/28 05:19:52;;;;;;;25.8;23.2;;;;;;;0.78;100;978.4219;;;;
2019/12/28 05:22:17;;;;;;;26.7;24;;;;;;;0.72;100;978.4211;;;;
2019/12/28 05:24:42;;;;;;;25.5;23;;;;;;;0.72;100;978.4435;;;;
2019/12/28 05:27:07;;;;;;;26.1;23.5;;;;;;;0.74;100;978.4788;;;;
2019/12/28 05:29:32;;;;;;;25.7;23.2;;;;;;;0.75;100;978.5151;;;;
2019/12/28 05:31:57;;;;;;;24.8;22.4;;;;;;;0.89;100;978.5254;;;;
2019/12/28 05:34:23;;;;;;;25.2;22.6;;;;;;;0.83;100;978.5455;;;;
2019/12/28 05:36:48;;;;;;;24.5;22.2;;;;;;;0.84;100;978.5675;;;;
2019/12/28 05:39:13;;;;;;;24.6;22.2;;;;;;;0.96;100;978.6203;;;;
2019/12/28 05:41:38;;;;;;;25.9;23.4;;;;;;;0.76;100;978.6357;;;;
2019/12/28 05:44:03;;;;;;;25.8;23.1;;;;;;;0.84;100;978.6267;;;;
2019/12/28 05:46:28;;;;;;;25.8;23.3;;;;;;;0.73;100;978.6667;;;;
2019/12/28 05:48:54;;;;;;;26.3;23.7;;;;;;;0.59;100;978.7039;;;;
2019/12/28 05:51:19;;;;;;;27.3;24.6;;;;;;;0.52;100;978.7134;;;;
2019/12/28 05:53:44;;;;;;;27.4;24.7;;;;;;;0.41;100;978.7559;;;;
2019/12/28 05:56:09;;;;;;;24.8;22.4;;;;;;;0.54;100;978.8705;;;;
2019/12/28 05:58:34;;;;;;;25.8;23.3;;;;;;;0.56;100;978.8442;;;;
2019/12/28 06:00:59;;;;;;;28.6;25.7;;;;;;;0.43;100;978.9635;;;;
2019/12/28 06:03:25;;;;;;;26.8;24.1;;;;;;;0.56;100;978.9899;;;;
2019/12/28 06:05:50;;;;;;;30.2;27.1;;;;;;;0.56;100;979.0325;;;;
2019/12/28 06:08:15;;;;;;;28;25.1;;;;;;;0.79;100;979.1111;;;;
2019/12/28 06:10:40;;;;;;;25.6;23;;;;;;;0.76;100;979.1139;;;;
2019/12/28 06:13:06;;;;;;;26.3;23.5;;;;;;;0.59;100;979.2085;;;;
2019/12/28 06:15:30;;;;;;;26.2;23.6;;;;;;;0.65;100;979.2172;;;;
2019/12/28 06:17:55;;;;;;;27.5;24.7;;;;;;;0.45;100;979.1483;;;;
2019/12/28 06:20:21;;;;;;;28.5;25.7;;;;;;;0.31;100;979.1675;;;;
2019/12/28 06:22:46;;;;;;;29.4;26.5;;;;;;;0.2;100;979.0781;;;;
2019/12/28 06:25:11;;;;;;;27.8;25.1;;;;;;;0.26;100;979.1339;;;;
2019/12/28 06:27:36;;;;;;;28.3;25.5;;;;;;;0.29;100;979.1755;;;;
2019/12/28 06:30:01;;;;;;;27.3;24.6;;;;;;;0.35;100;979.2111;;;;
2019/12/28 06:32:26;;;;;;;27.7;25;;;;;;;0.32;100;979.1795;;;;
2019/12/28 06:34:51;;;;;;;28;25.3;;;;;;;0.4;100;979.1613;;;;
2019/12/28 06:37:17;;;;;;;25.3;22.9;;;;;;;0.47;100;979.2324;;;;
2019/12/28 06:39:42;;;;;;;27.1;24.5;;;;;;;0.56;100;979.2286;;;;
2019/12/28 06:42:07;;;;;;;27.4;24.7;;;;;;;0.51;100;979.2634;;;;
2019/12/28 06:44:33;;;;;;;27.1;24.5;;;;;;;0.43;100;979.2999;;;;
2019/12/28 06:46:58;;;;;;;25.1;22.6;;;;;;;0.46;100;979.3395;;;;
2019/12/28 06:49:23;;;;;;;24.7;22.3;;;;;;;0.44;100;979.4006;;;;
2019/12/28 06:51:49;;;;;;;23.2;21;;;;;;;0.44;100;979.4141;;;;
2019/12/28 06:54:14;;;;;;;22.6;20.2;;;;;;;0.49;99.875;979.4797;;;;
2019/12/28 06:56:39;;;;;;;21.1;19.1;;;;;;;0.51;98.76855;979.489;;;;
2019/12/28 06:59:04;;;;;;;21.5;19.4;;;;;;;0.43;98.63574;979.5393;;;;
2019/12/28 07:01:29;;;;;;;20.8;18.8;;;;;;;0.5;98.21387;979.5933;;;;
2019/12/28 07:03:54;;;;;;;20.6;18.7;;;;;;;0.47;97.10352;979.5736;;;;
2019/12/28 07:06:20;;;;;;;20.5;18.6;;;;;;;0.51;97.23828;979.6361;;;;
2019/12/28 07:08:45;;;;;;;20;18.1;;;;;;;0.6;96.35938;979.5901;;;;
2019/12/28 07:11:10;;;;;;;21.4;19.4;;;;;;;0.51;97.27148;979.6692;;;;
2019/12/28 07:13:35;;;;;;;20.6;18.6;;;;;;;0.5;96.39258;979.6884;;;;
2019/12/28 07:16:01;;;;;;;17.5;15.9;;;;;;;0.85;94.03125;979.6537;;;;
2019/12/28 07:18:26;;;;;;;18.9;17;;;;;;;0.68;94.50098;979.6868;;;;
2019/12/28 07:20:51;;;;;;;20.6;18.6;;;;;;;0.67;97.52246;979.6674;;;;
2019/12/28 07:23:16;;;;;;;19.8;17.9;;;;;;;0.6;95.73145;979.6326;;;;
2019/12/28 07:25:41;;;;;;;19.6;17.7;;;;;;;0.67;95.82617;979.6741;;;;
2019/12/28 07:28:07;;;;;;;19.3;17.4;;;;;;;0.74;96.52637;979.7506;;;;
2019/12/28 07:30:32;;;;;;;18.7;16.9;;;;;;;0.75;95.43945;979.7736;;;;
2019/12/28 07:32:57;;;;;;;19.4;17.5;;;;;;;0.74;95.78418;979.803;;;;
2019/12/28 07:35:22;;;;;;;18.2;16.5;;;;;;;0.74;93.56836;979.8784;;;;
2019/12/28 07:37:47;;;;;;;18.2;16.5;;;;;;;0.8;92.55859;979.9881;;;;
2019/12/28 07:40:12;;;;;;;17.8;16.2;;;;;;;0.89;93.71484;980.0066;;;;
2019/12/28 07:42:38;;;;;;;17.8;16.1;;;;;;;0.86;91.80566;979.9526;;;;
2019/12/28 07:45:03;;;;;;;16.8;15.3;;;;;;;0.88;91.31445;979.991;;;;
2019/12/28 07:47:28;;;;;;;17.8;16.1;;;;;;;0.67;90.67383;980.0064;;;;
2019/12/28 07:50:03;;;;;;;16.6;15.1;;;;;;;0.62;90.19238;980.0856;;;;
2019/12/28 07:52:18;;;;;;;16.7;15.2;;;;;;;0.72;90.31445;980.1021;;;;
2019/12/28 07:54:43;;;;;;;17.9;16.2;;;;;;;0.64;91.41016;980.1356;;;;
2019/12/28 07:57:08;;;;;;;18.4;16.8;;;;;;;0.77;93.61035;980.1683;;;;
2019/12/28 07:59:34;;;;;;;19.1;17.2;;;;;;;0.8;92.47852;980.1071;;;;
2019/12/28 08:01:59;;;;;;;18.6;16.8;;;;;;;0.74;91.36426;980.1165;;;;
2019/12/28 08:04:24;;;;;;;17.4;15.7;;;;;;;0.84;90.46289;980.1072;;;;
2019/12/28 08:06:49;;;;;;;18.5;16.8;;;;;;;0.84;91.44141;980.1064;;;;
2019/12/28 08:09:14;;;;;;;17.5;15.8;;;;;;;0.76;90.85254;980.1553;;;;
2019/12/28 08:11:39;;;;;;;16.4;14.9;;;;;;;0.75;89.94922;980.1406;;;;
2019/12/28 08:14:04;;;;;;;16.8;15.2;;;;;;;0.7;91.72754;980.1964;;;;
2019/12/28 08:16:29;;;;;;;16;14.5;;;;;;;0.85;90.63379;980.1552;;;;
2019/12/28 08:18:54;;;;;;;15.5;14.1;;;;;;;0.95;90.29492;980.1268;;;;
2019/12/28 08:21:19;;;;;;;16.2;14.6;;;;;;;0.98;89.29883;980.1728;;;;
2019/12/28 08:23:45;;;;;;;16.9;15.4;;;;;;;0.92;90.23242;980.1523;;;;
2019/12/28 08:26:10;;;;;;;15.5;14.1;;;;;;;1.1;89.56152;980.2313;;;;
2019/12/28 08:28:35;;;;;;;16.3;14.8;;;;;;;1.16;88.87695;980.2431;;;;
2019/12/28 08:31:00;;;;;;;15;13.7;;;;;;;1.09;89.30078;980.2921;;;;
2019/12/28 08:33:25;;;;;;;14.4;13.1;;;;;;;0.96;87.63086;980.3306;;;;
2019/12/28 08:35:50;;;;;;;14.7;13.4;;;;;;;1.03;87.1377;980.3689;;;;
2019/12/28 08:38:15;;;;;;;16.1;14.6;;;;;;;0.93;87.20605;980.2999;;;;
2019/12/28 08:40:40;;;;;;;14.8;13.5;;;;;;;0.98;87.6123;980.3364;;;;
2019/12/28 08:43:06;;;;;;;15.4;14;;;;;;;0.94;87.73828;980.378;;;;
2019/12/28 08:45:31;;;;;;;13.9;12.7;;;;;;;0.97;87.10449;980.3613;;;;
2019/12/28 08:47:56;;;;;;;14;12.8;;;;;;;1.06;86.70605;980.4156;;;;
2019/12/28 08:50:21;;;;;;;14.2;12.9;;;;;;;1.06;88.57422;980.3755;;;;
2019/12/28 08:53:00;;;;;;;13.7;12.5;;;;;;;1.08;88.29492;980.3909;;;;
2019/12/28 08:55:12;;;;;;;14.6;13.3;;;;;;;1.22;87.38086;980.4348;;;;
2019/12/28 08:57:37;;;;;;;14.6;13.2;;;;;;;1.08;86.77734;980.4545;;;;
2019/12/28 09:00:02;;;;;;;14.8;13.4;;;;;;;1.12;87.57324;980.4737;;;;
2019/12/28 09:02:27;;;;;;;14.4;13.1;;;;;;;1.26;87.28711;980.5063;;;;
2019/12/28 09:04:52;;;;;;;13.2;12;;;;;;;1.34;85.40039;980.5284;;;;
2019/12/28 09:07:17;;;;;;;13.6;12.4;;;;;;;1.27;85.85645;980.4756;;;;
2019/12/28 09:09:42;;;;;;;12.2;11.1;;;;;;;1.36;85.45996;980.4135;;;;
2019/12/28 09:12:07;;;;;;;13.9;12.7;;;;;;;1.35;85.77344;980.4116;;;;
2019/12/28 09:14:32;;;;;;;13.1;11.9;;;;;;;1.45;85.70313;980.4028;;;;
2019/12/28 09:16:58;;;;;;;14.5;13.2;;;;;;;1.61;87.47168;980.3356;;;;
2019/12/28 09:19:23;;;;;;;12.8;11.7;;;;;;;1.65;85.6875;980.3951;;;;
2019/12/28 09:21:48;;;;;;;12.9;11.7;;;;;;;1.67;84.0918;980.3994;;;;
2019/12/28 09:24:13;;;;;;;13.7;12.4;;;;;;;1.58;85.05469;980.4545;;;;
2019/12/28 09:26:38;;;;;;;13.2;12;;;;;;;1.5;86.7627;980.4106;;;;
2019/12/28 09:29:03;;;;;;;13.4;12.2;;;;;;;1.46;86.71973;980.4395;;;;
2019/12/28 09:31:28;;;;;;;12.2;11.1;;;;;;;1.59;83.35645;980.4684;;;;
2019/12/28 09:33:53;;;;;;;11.7;10.6;;;;;;;1.51;83.39453;980.5283;;;;
2019/12/28 09:36:18;;;;;;;12.2;11.1;;;;;;;1.57;86.20215;980.4955;;;;
2019/12/28 09:38:43;;;;;;;12.7;11.4;;;;;;;1.59;84.22266;980.4815;;;;
2019/12/28 09:41:08;;;;;;;11.9;10.8;;;;;;;1.61;83.73047;980.4744;;;;
2019/12/28 09:43:33;;;;;;;11.9;10.9;;;;;;;1.6;83.75098;980.532;;;;
2019/12/28 09:45:59;;;;;;;12.3;11.2;;;;;;;1.53;83.36328;980.5773;;;;
2019/12/28 09:48:24;;;;;;;11;10;;;;;;;1.42;81.53906;980.579;;;;
2019/12/28 09:50:49;;;;;;;11.2;10.2;;;;;;;1.75;83.9834;980.5689;;;;
2019/12/28 09:53:14;;;;;;;11.7;10.6;;;;;;;1.69;82.26953;980.568;;;;
2019/12/28 09:55:39;;;;;;;10;9.1;;;;;;;1.75;81.44727;980.5898;;;;
2019/12/28 09:58:04;;;;;;;9.4;8.5;;;;;;;1.76;77.34473;980.6533;;;;
2019/12/28 10:00:29;;;;;;;8.5;7.6;;;;;;;1.55;76.50586;980.7416;;;;
2019/12/28 10:02:55;;;;;;;9.2;8.3;;;;;;;1.55;77.12695;980.6688;;;;
2019/12/28 10:05:20;;;;;;;8.5;7.7;;;;;;;1.59;77.02051;980.7477;;;;
2019/12/28 10:07:45;;;;;;;8;7.3;;;;;;;1.57;76.96094;980.7313;;;;
2019/12/28 10:10:10;;;;;;;7;6.4;;;;;;;1.59;75.57813;980.7261;;;;
2019/12/28 10:12:35;;;;;;;6.2;5.3;;;;;;;1.63;74.8291;980.7383;;;;
2019/12/28 10:15:01;;;;;;;6.6;5.9;;;;;;;1.77;75.39453;980.7317;;;;
2019/12/28 10:17:26;;;;;;;5.2;4.7;;;;;;;1.92;75.07129;980.7553;;;;
2019/12/28 10:19:51;;;;;;;4.9;4.5;;;;;;;1.73;72.32129;980.7106;;;;
2019/12/28 10:22:16;;;;;;;5;4.5;;;;;;;1.63;73.12695;980.6556;;;;
2019/12/28 10:24:41;;;;;;;4.8;4.4;;;;;;;1.69;74.12012;980.6401;;;;
2019/12/28 10:27:07;;;;;;;5.4;4.9;;;;;;;1.7;73.24121;980.6362;;;;
2019/12/28 10:29:34;;;;;;;5.4;4.9;;;;;;;1.71;72.95117;980.6179;;;;
2019/12/28 10:31:59;;;;;;;4.8;4.3;;;;;;;1.76;72.79004;980.6356;;;;
2019/12/28 10:34:22;;;;;;;4.7;4.3;;;;;;;1.7;73.11719;980.6103;;;;
2019/12/28 10:36:48;;;;;;;5;4.5;;;;;;;1.77;73.66113;980.5531;;;;
2019/12/28 10:39:13;;;;;;;5.3;4.8;;;;;;;1.86;72.23145;980.5842;;;;
2019/12/28 10:41:38;;;;;;;5.4;4.9;;;;;;;1.81;72.43652;980.502;;;;
2019/12/28 10:44:03;;;;;;;5.7;5.2;;;;;;;1.82;74.50195;980.5093;;;;
2019/12/28 10:46:28;;;;;;;4.8;4.2;;;;;;;1.66;72.60254;980.447;;;;
2019/12/28 10:48:53;;;;;;;5.4;4.9;;;;;;;1.86;74.30664;980.5092;;;;
2019/12/28 10:51:19;;;;;;;5.2;4.7;;;;;;;1.6;72.93066;980.4356;;;;
2019/12/28 10:53:44;;;;;;;5.9;5.4;;;;;;;1.79;74.61133;980.41;;;;
2019/12/28 10:56:09;;;;;;;6.4;5.8;;;;;;;1.9;75.87109;980.3947;;;;
2019/12/28 10:58:34;;;;;;;5.1;4.6;;;;;;;2.13;72.97559;980.3777;;;;
2019/12/28 11:00:59;;;;;;;5.2;4.7;;;;;;;1.99;73.65332;980.4015;;;;
2019/12/28 11:03:25;;;;;;;5.6;5.1;;;;;;;1.76;73.41016;980.3864;;;;
2019/12/28 11:05:50;;;;;;;5.8;5.3;;;;;;;1.73;72.95313;980.4085;;;;
2019/12/28 11:08:15;;;;;;;6.5;5.9;;;;;;;1.69;74.50195;980.4581;;;;
2019/12/28 11:10:40;;;;;;;6.6;6;;;;;;;1.61;74.65723;980.4866;;;;
2019/12/28 11:13:05;;;;;;;6.6;6;;;;;;;1.49;74.41113;980.4266;;;;
2019/12/28 11:15:30;;;;;;;6.6;6;;;;;;;1.51;74.51563;980.4351;;;;
2019/12/28 11:17:55;;;;;;;7;6.3;;;;;;;1.61;74.30762;980.4384;;;;
2019/12/28 11:20:20;;;;;;;6.7;6.1;;;;;;;1.54;73.95703;980.367;;;;
2019/12/28 11:22:45;;;;;;;14.9;13.4;;;;;;;1.56;74.8291;980.3758;;;;
2019/12/28 11:25:11;;;;;;;7.7;7;;;;;;;1.62;75.5166;980.3544;;;;
2019/12/28 11:27:36;;;;;;;7.2;6.5;;;;;;;1.67;73.98047;980.4246;;;;
2019/12/28 11:30:01;;;;;;;7.7;7;;;;;;;1.57;73.55566;980.3398;;;;
2019/12/28 11:32:26;;;;;;;7.4;6.7;;;;;;;1.54;73.66602;980.3225;;;;
2019/12/28 11:34:51;;;;;;;8.2;7.5;;;;;;;1.62;75.65234;980.2692;;;;
2019/12/28 11:37:17;;;;;;;9.1;8.3;;;;;;;1.78;74.38281;980.1973;;;;
2019/12/28 11:39:42;;;;;;;9.8;8.8;;;;;;;1.8;74.54492;980.1063;;;;
2019/12/28 11:42:07;;;;;;;8.9;8.1;;;;;;;1.74;73.83496;980.0416;;;;
2019/12/28 11:44:32;;;;;;;11.2;10.1;;;;;;;1.92;74.55469;979.9833;;;;
2019/12/28 11:46:57;;;;;;;8.8;8;;;;;;;1.75;73.78027;979.978;;;;
2019/12/28 11:49:23;;;;;;;8.7;7.9;;;;;;;1.99;75.07324;980.0046;;;;
2019/12/28 11:51:48;;;;;;;9.9;9;;;;;;;2.03;73.41113;979.9992;;;;
2019/12/28 11:54:13;;;;;;;8.2;7.4;;;;;;;2.13;74.25391;979.9786;;;;
2019/12/28 11:56:39;;;;;;;8;7.3;;;;;;;2.33;73.80273;979.9053;;;;
2019/12/28 11:59:04;;;;;;;7.7;7;;;;;;;2.5;74.06934;979.9587;;;;
2019/12/28 12:02:29;;;;;;;6.8;6.2;;;;;;;2.41;71.72656;980.0059;;;;
2019/12/28 12:03:55;;;;;;;6.2;5.7;;;;;;;2.35;71.94336;980.0474;;;;
2019/12/28 12:06:20;;;;;;;7.2;6.6;;;;;;;2.17;72.09277;980.0591;;;;
2019/12/28 12:08:45;;;;;;;7.8;7.1;;;;;;;2.25;73.09863;980.0544;;;;
2019/12/28 12:11:10;;;;;;;7.7;7;;;;;;;2.29;74.02051;980.0931;;;;
2019/12/28 12:13:35;;;;;;;7.7;7;;;;;;;2.38;74.60059;980.0725;;;;
2019/12/28 12:16:00;;;;;;;8.1;7.4;;;;;;;2.62;75.10645;980.0758;;;;
2019/12/28 12:18:26;;;;;;;7.1;6.4;;;;;;;2.81;74.82324;980.0306;;;;
2019/12/28 12:20:51;;;;;;;6.7;6.1;;;;;;;2.86;72.50391;979.9818;;;;
2019/12/28 12:23:16;;;;;;;5.8;5.2;;;;;;;2.54;70.02051;979.9147;;;;
2019/12/28 12:25:41;;;;;;;7.3;6.2;;;;;;;2.28;71.24023;979.9788;;;;
2019/12/28 12:28:07;;;;;;;6.4;5.8;;;;;;;2.16;70.99707;979.9586;;;;
2019/12/28 12:30:32;;;;;;;6.3;5.7;;;;;;;2.22;72.05566;979.9543;;;;
2019/12/28 12:32:57;;;;;;;5.6;5.1;;;;;;;2.17;71.86719;979.8438;;;;
2019/12/28 12:35:22;;;;;;;5.8;5.3;;;;;;;2.24;71.17969;979.8845;;;;
2019/12/28 12:37:47;;;;;;;5.7;5.1;;;;;;;2.5;73.23242;979.8716;;;;
2019/12/28 12:40:13;;;;;;;5.6;5.1;;;;;;;2.53;72.46875;979.8736;;;;
2019/12/28 12:42:38;;;;;;;6.9;6.3;;;;;;;2.43;73.31152;979.8602;;;;
2019/12/28 12:45:03;;;;;;;6.7;6.1;;;;;;;2.37;72.39746;979.832;;;;
2019/12/28 12:47:28;;;;;;;6.8;6.2;;;;;;;2.39;73.21387;979.877;;;;
2019/12/28 12:49:53;;;;;;;7.2;6.5;;;;;;;2.25;71.50684;979.832;;;;
2019/12/28 12:52:18;;;;;;;7.7;7;;;;;;;2.03;73.38867;979.9028;;;;
2019/12/28 12:54:44;;;;;;;8.9;8.1;;;;;;;1.73;74.57617;979.8803;;;;
2019/12/28 12:57:09;;;;;;;8.6;7.8;;;;;;;1.56;75.05469;979.8815;;;;
2019/12/28 12:59:34;;;;;;;8.8;8;;;;;;;1.71;75.3623;979.8723;;;;
2019/12/28 13:02:00;;;;;;;8.7;7.9;;;;;;;1.66;75.10449;979.8769;;;;
2019/12/28 13:04:25;;;;;;;8.3;7.5;;;;;;;1.57;74.16602;979.8566;;;;
2019/12/28 13:06:50;;;;;;;7.9;7.2;;;;;;;1.47;74.09082;979.8725;;;;
2019/12/28 13:09:15;;;;;;;8.1;7.3;;;;;;;1.53;74.0459;979.7953;;;;
2019/12/28 13:11:40;;;;;;;8.2;7.4;;;;;;;1.58;74.07617;979.7888;;;;
2019/12/28 13:14:21;;;;;;;8.2;7.5;;;;;;;1.72;76.08691;979.7433;;;;
2019/12/28 13:16:31;;;;;;;7.8;7.1;;;;;;;1.61;73.62012;979.8091;;;;
2019/12/28 13:18:56;;;;;;;8.7;7.9;;;;;;;1.59;75.12695;979.8098;;;;
2019/12/28 13:21:21;;;;;;;7.8;7;;;;;;;1.75;74.51367;979.8134;;;;
2019/12/28 13:23:46;;;;;;;8.2;7.4;;;;;;;1.92;73.51563;979.9016;;;;
2019/12/28 13:26:12;;;;;;;7.8;7.2;;;;;;;1.62;73.74707;979.9285;;;;
2019/12/28 13:28:37;;;;;;;8.6;7.9;;;;;;;1.71;74.85449;980.0084;;;;
2019/12/28 13:31:02;;;;;;;8.4;7.6;;;;;;;1.83;75.93652;979.9799;;;;
2019/12/28 13:33:27;;;;;;;8.7;7.9;;;;;;;1.59;74.34961;979.9545;;;;
2019/12/28 13:35:52;;;;;;;8.4;7.6;;;;;;;1.54;75.51172;980.003;;;;
2019/12/28 13:38:17;;;;;;;7.9;7.2;;;;;;;1.8;74.35156;980.0416;;;;
2019/12/28 13:40:43;;;;;;;8.8;7.9;;;;;;;1.92;75.95117;980.0076;;;;
2019/12/28 13:43:08;;;;;;;9;8.2;;;;;;;1.82;75.26855;980.0817;;;;
2019/12/28 13:45:33;;;;;;;8.6;7.8;;;;;;;1.82;74.70605;980.1127;;;;
2019/12/28 13:47:58;;;;;;;8.1;7.4;;;;;;;1.73;76.68457;980.0833;;;;
2019/12/28 13:50:23;;;;;;;8;7.3;;;;;;;1.68;75.52637;980.109;;;;
2019/12/28 13:52:48;;;;;;;8;7.2;;;;;;;1.27;75.29395;980.1303;;;;
2019/12/28 13:55:14;;;;;;;8.6;7.8;;;;;;;1.21;76.64648;980.1992;;;;
2019/12/28 13:57:39;;;;;;;8.5;7.7;;;;;;;1.33;75.59766;980.2401;;;;
2019/12/28 14:00:04;;;;;;;8.7;7.9;;;;;;;1.31;76.08008;980.2508;;;;
2019/12/28 14:02:29;;;;;;;8.3;7.5;;;;;;;1.2;75.92578;980.231;;;;
2019/12/28 14:04:54;;;;;;;7.9;7.2;;;;;;;1.3;76.54004;980.2297;;;;
2019/12/28 14:07:20;;;;;;;8;7.3;;;;;;;1.34;76.40039;980.274;;;;
2019/12/28 14:09:45;;;;;;;7.8;7.1;;;;;;;1.25;75.47266;980.3472;;;;
2019/12/28 14:12:10;;;;;;;7.4;6.7;;;;;;;1.27;75.46387;980.3594;;;;
2019/12/28 14:14:35;;;;;;;7.8;7.1;;;;;;;1.17;74.47852;980.3647;;;;
2019/12/28 14:17:01;;;;;;;7.7;7.1;;;;;;;1.22;75.36426;980.3878;;;;
2019/12/28 14:19:26;;;;;;;7.9;7.3;;;;;;;1.11;75.46777;980.4308;;;;
2019/12/28 14:21:51;;;;;;;8.2;7.4;;;;;;;1.14;75.00293;980.4744;;;;
2019/12/28 14:24:16;;;;;;;8;7.2;;;;;;;1.11;76.03027;980.4934;;;;